»·PEaware :: N627SP KSMX-KBFL

N627SP :: KSMX-KBFL

FLIGHT INFORMATION

Flight Status: Arrived
Operator: Privately registered:
United States
More flights under this callsign
Pilot: Tom S. (23203)
Aircraft: CESSNA 172 SKYHAWK
(C172)
More flights by this aircraft type
Origin: KSMX Santa Maria Pub/Capt Hancock
United States
Destination: KBFL Meadows
United States
More flights between these airports :: More routes between these airports
Route:
File this flight plan on PilotEdge
Remarks:
Altitude:
(Current/Filed)
5,500ft
Speed:
(Current/Filed)
100kts
Departed: 29-Jan-19 12:22 PM
Arrived: 29-Jan-19 01:30 PM
Distance/Time
Traveled:
76nm/1:08
Distance/Time
To Go:
Arrived

Flight Plot

Page will automatically refresh every two minutes.


Map Options




Map Legend


Flown Route
Filed Route
Departure Airport
Arrival Airport
Navaid (VOR, NDB)
Fix

Horizontal Profiles

Position Reports

Time Latitude Longitude Heading Altitude Ground
Speed
29-Jan-19 12:11 34.894377 -120.443017 315 3ft 0kts
29-Jan-19 12:12 34.894377 -120.443017 315 3ft 0kts
29-Jan-19 12:13 34.894377 -120.443017 315 3ft 0kts
29-Jan-19 12:14 34.894377 -120.443017 315 3ft 0kts
29-Jan-19 12:15 34.894400 -120.443122 265 3ft 1kts
29-Jan-19 12:16 34.894006 -120.444244 284 3ft 7kts
29-Jan-19 12:17 34.893469 -120.445219 201 3ft 0kts
29-Jan-19 12:18 34.893468 -120.445219 201 3ft 0kts
29-Jan-19 12:19 34.893215 -120.445442 226 3ft 0kts
29-Jan-19 12:20 34.893019 -120.446101 309 3ft 5kts
29-Jan-19 12:21 34.898151 -120.452345 313 166ft 79kts
29-Jan-19 12:22 34.903418 -120.450451 110 556ft 100kts
29-Jan-19 12:23 34.904780 -120.439595 64 920ft 99kts
29-Jan-19 12:24 34.909205 -120.429544 58 1323ft 91kts
29-Jan-19 12:25 34.920842 -120.411447 48 1982ft 95kts
29-Jan-19 12:26 34.926119 -120.404413 44 2266ft 95kts
29-Jan-19 12:27 34.933180 -120.395931 39 2621ft 95kts
29-Jan-19 12:28 34.942894 -120.389521 24 3005ft 95kts
29-Jan-19 12:29 34.949987 -120.378976 66 3378ft 97kts
29-Jan-19 12:30 34.954574 -120.365766 59 3753ft 97kts
29-Jan-19 12:31 34.961364 -120.355121 45 4029ft 97kts
29-Jan-19 12:32 34.968350 -120.344745 54 4190ft 97kts
29-Jan-19 12:33 34.972949 -120.332040 68 4344ft 98kts
29-Jan-19 12:34 34.977121 -120.319018 58 4486ft 99kts
29-Jan-19 12:35 34.983029 -120.307650 55 4531ft 101kts
29-Jan-19 12:36 34.987659 -120.295158 67 4512ft 101kts
29-Jan-19 12:37 34.990111 -120.285218 71 4480ft 102kts
29-Jan-19 12:38 34.992859 -120.273036 74 4451ft 103kts
29-Jan-19 12:39 34.992621 -120.259332 98 4421ft 105kts
29-Jan-19 12:40 34.991879 -120.245262 88 4442ft 101kts
29-Jan-19 12:41 34.993999 -120.231310 59 4408ft 101kts
29-Jan-19 12:42 34.999047 -120.219822 61 4404ft 99kts
29-Jan-19 12:43 35.003869 -120.207955 60 4363ft 99kts
29-Jan-19 12:44 35.009086 -120.196100 59 4334ft 97kts
29-Jan-19 12:45 35.014858 -120.183897 47 4416ft 86kts
29-Jan-19 12:46 35.023054 -120.174390 38 4501ft 91kts
29-Jan-19 12:47 35.035304 -120.162274 32 5183ft 82kts
29-Jan-19 12:48 35.045546 -120.148535 50 5649ft 91kts
29-Jan-19 12:49 35.052631 -120.135509 53 5723ft 97kts
29-Jan-19 12:50 35.059549 -120.123018 50 5741ft 102kts
29-Jan-19 12:51 35.066461 -120.111496 49 5673ft 110kts
29-Jan-19 12:52 35.074203 -120.097767 49 5694ft 107kts
29-Jan-19 12:53 35.082247 -120.084838 49 5634ft 110kts
29-Jan-19 12:54 35.089551 -120.072480 53 5541ft 107kts
29-Jan-19 12:55 35.096834 -120.058461 53 5500ft 98kts
29-Jan-19 12:56 35.102311 -120.044610 64 5473ft 95kts
29-Jan-19 12:57 35.107702 -120.029853 59 5440ft 94kts
29-Jan-19 12:58 35.111730 -120.014351 63 5399ft 95kts
29-Jan-19 12:59 35.117054 -120.002704 55 5402ft 94kts
29-Jan-19 13:00 35.122623 -119.989783 56 5468ft 94kts
29-Jan-19 13:01 35.148247 -119.930265 65 5709ft 95kts
29-Jan-19 13:02 35.179395 -119.842025 59 6030ft 95kts
29-Jan-19 13:04 35.183066 -119.831297 65 5994ft 101kts
29-Jan-19 13:05 35.191618 -119.815999 46 5749ft 109kts
29-Jan-19 13:06 35.199142 -119.797887 59 5555ft 111kts
29-Jan-19 13:07 35.207044 -119.780322 55 5500ft 101kts
29-Jan-19 13:08 35.214054 -119.766628 53 5466ft 98kts
29-Jan-19 13:09 35.239224 -119.714728 59 5336ft 99kts
29-Jan-19 13:10 35.253952 -119.666376 66 5256ft 101kts
29-Jan-19 13:11 35.273716 -119.607682 48 5173ft 95kts
29-Jan-19 13:12 35.285406 -119.578182 72 5098ft 101kts
29-Jan-19 13:13 35.287087 -119.546588 76 5042ft 101kts
29-Jan-19 13:14 35.298444 -119.517474 56 5009ft 95kts
29-Jan-19 13:15 35.323011 -119.467496 47 5025ft 89kts
29-Jan-19 13:16 35.342945 -119.437552 46 5542ft 90kts
29-Jan-19 13:17 35.350199 -119.407908 86 5622ft 99kts
29-Jan-19 13:18 35.356618 -119.376662 73 5661ft 99kts
29-Jan-19 13:19 35.364826 -119.345948 69 5648ft 96kts
29-Jan-19 13:20 35.383756 -119.278323 69 5649ft 96kts
29-Jan-19 13:21 35.399628 -119.211392 79 5056ft 111kts
29-Jan-19 13:22 35.405388 -119.173985 57 4373ft 110kts
29-Jan-19 13:23 35.418154 -119.139889 70 3687ft 111kts
29-Jan-19 13:23 35.421834 -119.108389 76 3029ft 117kts
29-Jan-19 13:25 35.416282 -119.066116 139 1929ft 111kts
29-Jan-19 13:26 35.395007 -119.043832 66 1283ft 80kts
29-Jan-19 13:26 35.406133 -119.031041 355 1076ft 55kts
29-Jan-19 13:27 35.420147 -119.039871 316 939ft 61kts
29-Jan-19 13:28 35.432410 -119.054196 310 91ft 53kts
29-Jan-19 13:30 35.438246 -119.059904 83 3ft 0kts
29-Jan-19 13:30 35.438246 -119.059904 83 3ft 0kts
29-Jan-19 13:31 35.438302 -119.059342 124 3ft 10kts
29-Jan-19 13:32 35.436799 -119.055585 136 3ft 16kts
29-Jan-19 13:33 35.435448 -119.053765 29 3ft 4kts
29-Jan-19 13:34 35.435479 -119.053726 56 3ft 0kts
29-Jan-19 13:35 35.435479 -119.053726 56 3ft 0kts
29-Jan-19 13:36 35.435479 -119.053726 56 3ft 0kts
29-Jan-19 13:37 35.435479 -119.053726 56 3ft 0kts
29-Jan-19 13:38 35.435479 -119.053726 56 3ft 0kts
29-Jan-19 13:39 35.435479 -119.053726 56 3ft 0kts
29-Jan-19 13:40 35.435479 -119.053726 56 3ft 0kts
29-Jan-19 13:41 35.435479 -119.053726 56 3ft 0kts
29-Jan-19 13:42 35.435479 -119.053726 56 3ft 0kts
29-Jan-19 13:43 35.435479 -119.053726 56 3ft 0kts

Navigation Log

Ident Type
Flight plan parsing failed, navigation log unavailable